Pittsford Mills, Vermont
Current Conditions -  °F | °C
As of 4:55 PM on Friday 24 Oct 2014 (Local Time) from KRUT Reporting Station
Overcast Overcast  
Wind Chill: 40°   Ceiling: 1600
Heat Index: 45°   Visibility: 10mi
Dew Point: 39°   Wind: 9mph
Humidity: 81%   Direction: 320°NW
Pressure: 29.8"   Gusts: 18mph
Location:  43.7419°N, 73.0064°W
Report Text: KRUT 242055Z 32008G16KT 10SM OVC016 07/04 A2980 RMK AO1 54000
Loading
Personal Weather Stations






























Interactive Weather Map New forecast layout! Learn more

10-Day Weather Forecast

Advertisements
Track Severe Weather on mobile